Latest Weather Observations for Cooma Airport

IDN60801

Issued at 11:32 pm EST Saturday 28 May 2016 (issued every 30 minutes, with the page automatically refreshed every 10 minutes)

About weather observations | Map of weather stations | Latest weather observations for NSW | Other Formats
Station Details ID: 070217 Name: COOMA AIRPORT AWS Lat: -36.29 Lon: 148.97 Height: 930.0 m
Data from the previous 72 hours. | See also: Recent months at Cooma Airport
Date/Time
EST
Temp
°C
App
Temp
°C
Dew
Point
Rel
Hum
%
Delta-T
°C
Wind Press
QNH
hPa
Press
MSL
hPa
Rain
since 9 am
mm
Dir
 
Spd
km/h
Gust
km/h
Spd
kts
Gust
kts
28/11:00pm -0.4 -5.2 -2.3 87 0.7 WSW 13 15 7 8 1012.8 1012.9 0.0
28/10:30pm -0.9 -5.7 -2.9 86 0.7 WSW 13 15 7 8 1012.6 1012.7 0.0
28/10:00pm -1.9 -6.6 -5.0 79 0.9 SW 11 13 6 7 1012.5 1012.6 0.0
28/09:30pm 0.7 -4.9 -2.5 79 1.2 WSW 17 20 9 11 1012.4 1012.5 0.0
28/09:00pm -1.3 -5.9 -4.1 81 0.9 SW 11 13 6 7 1012.3 1012.4 0.0
28/08:30pm 0.8 -4.4 -2.9 76 1.4 WSW 15 17 8 9 1012.1 1012.1 0.0
28/08:00pm 2.5 -3.4 -2.4 70 1.8 WSW 19 24 10 13 1011.8 1011.9 0.0
28/07:30pm 2.3 -3.2 -2.0 73 1.6 WSW 17 20 9 11 1011.6 1011.7 0.0
28/07:00pm 1.9 -4.5 -1.5 78 1.3 SW 22 26 12 14 1011.1 1011.1 0.0
28/06:30pm 3.5 -3.2 -1.3 71 1.9 SSW 24 28 13 15 1010.5 1010.6 0.0
28/06:00pm 4.2 -1.7 -0.8 70 2.0 SW 20 28 11 15 1010.2 1010.2 0.0
28/05:30pm 3.6 -1.3 -0.6 74 1.7 SW 15 22 8 12 1009.5 1009.6 0.0
28/05:00pm 4.7 -0.5 -0.1 71 1.9 SSW 17 20 9 11 1009.0 1009.0 0.0
28/04:30pm 6.4 0.7 0.5 66 2.5 S 20 26 11 14 1008.4 1008.4 0.0
28/04:00pm 7.1 -0.3 -0.4 59 3.1 SSW 28 35 15 19 1008.0 1008.0 0.0
28/03:30pm 7.4 -0.8 -0.8 56 3.3 SSW 32 37 17 20 1007.6 1007.6 0.0
28/03:00pm 7.7 -0.2 -1.3 53 3.6 SSW 30 39 16 21 1007.2 1007.2 0.0
28/02:30pm 8.2 0.7 -1.3 51 3.9 SSW 28 35 15 19 1006.8 1006.8 0.0
28/02:00pm 8.2 0.4 -0.5 54 3.6 SSW 30 39 16 21 1006.4 1006.3 0.0
28/01:30pm 7.9 1.0 -0.1 57 3.3 SSW 26 33 14 18 1006.4 1006.3 0.0
28/01:00pm 7.0 -0.3 -0.2 60 3.0 SSW 28 35 15 19 1006.5 1006.4 0.0
28/12:30pm 6.0 -2.2 -0.9 61 2.8 SSW 32 39 17 21 1006.1 1006.1 0.0
28/12:00pm 6.8 -0.3 -1.1 57 3.2 SSW 26 35 14 19 1006.3 1006.2 0.0
28/11:30am 6.5 -0.9 -0.7 60 2.9 SSW 28 35 15 19 1006.5 1006.4 0.0
28/11:00am 7.2 1.0 -0.5 58 3.2 SSW 22 32 12 17 1006.8 1006.8 0.0
28/10:30am 6.0 0.1 -0.7 62 2.7 SW 20 30 11 16 1007.1 1007.1 0.0
28/10:00am 4.8 -0.1 -0.6 68 2.2 WSW 15 20 8 11 1007.2 1007.2 0.0
28/09:30am 3.1 -0.7 -0.9 75 1.6 SSW 9 11 5 6 1007.4 1007.3 0.0
28/09:00am 1.3 -2.5 -1.1 84 0.9 SSW 9 13 5 7 1007.5 1007.4 0.0
28/08:30am -1.5 -5.1 -1.9 97 0.1 SW 7 7 4 4 1007.6 1007.6 0.0
28/08:00am -4.7 -8.5 -5.1 97 -0.1 S 6 9 3 5 1007.4 1007.3 0.0
28/07:30am -6.8 -9.7 -7.5 95 0.0 CALM 0 0 0 0 1007.2 1007.2 0.0
28/07:00am -8.1 -11.0 -8.5 97 -0.2 CALM 0 6 0 3 1007.1 1007.1 0.0
28/06:30am -8.8 -12.6 -10.3 89 0.1 WSW 4 9 2 5 1006.7 1006.7 0.0
28/06:00am -8.2 -11.2 -9.7 89 0.1 CALM 0 0 0 0 1006.7 1006.7 0.0
28/05:30am -8.4 -12.6 -10.5 85 0.3 ESE 6 7 3 4 1006.6 1006.5 0.0
28/05:00am -8.2 -12.1 -10.6 83 0.4 NNE 4 7 2 4 1006.6 1006.5 0.0
28/04:30am -7.3 -10.6 -8.2 93 0.0 SSW 2 7 1 4 1006.3 1006.2 0.0
28/04:00am -7.3 -11.4 -8.5 91 0.1 NW 6 9 3 5 1006.3 1006.2 0.0
28/03:30am -7.4 -10.3 -8.6 91 0.1 CALM 0 0 0 0 1006.1 1006.1 0.0
28/03:00am -7.2 -11.3 -8.6 90 0.1 ENE 6 7 3 4 1006.5 1006.4 0.0
28/02:30am -6.5 -10.2 -8.6 85 0.4 N 4 7 2 4 1006.7 1006.7 0.0
28/02:00am -6.1 -9.7 -7.5 90 0.2 SSE 4 11 2 6 1006.7 1006.7 0.0
28/01:30am -4.3 -7.0 -6.1 87 0.4 CALM 0 0 0 0 1006.8 1006.8 0.0
28/01:00am -3.9 -8.1 -7.2 78 0.8 W 7 11 4 6 1006.8 1006.8 0.0
28/12:30am -2.6 -5.9 -4.0 90 0.4 S 4 9 2 5 1006.8 1006.8 0.0
28/12:00am -2.4 -5.0 -4.6 85 0.6 CALM 0 4 0 2 1007.1 1007.1 0.0
 
Date/Time
EST
Temp
°C
App
Temp
°C
Dew
Point
Rel
Hum
%
Delta-T
°C
Wind Press
QNH
hPa
Press
MSL
hPa
Rain
since 9 am
mm
Dir
 
Spd
km/h
Gust
km/h
Spd
kts
Gust
kts
27/11:30pm -3.2 -6.2 -5.4 85 0.6 SE 2 9 1 5 1007.1 1007.1 0.0
27/11:00pm -1.9 -4.4 -3.8 87 0.6 CALM 0 0 0 0 1007.0 1007.0 0.0
27/10:30pm -1.7 -5.0 -4.5 81 0.9 NW 4 7 2 4 1007.0 1007.0 0.0
27/10:00pm -2.2 -6.2 -5.7 77 1.0 ENE 7 11 4 6 1007.0 1007.0 0.0
27/09:30pm 0.8 -3.2 -2.6 78 1.3 WNW 9 13 5 7 1007.0 1007.0 0.0
27/09:00pm -0.1 -3.4 -4.5 72 1.5 S 4 9 2 5 1006.8 1006.8 0.0
27/08:30pm 1.6 -3.2 -2.2 76 1.4 SW 13 15 7 8 1006.3 1006.2 0.0
27/08:00pm 3.6 -3.1 -1.2 71 1.9 WSW 24 30 13 16 1005.9 1005.9 0.0
27/07:30pm 4.2 -2.1 -0.8 70 2.0 WSW 22 28 12 15 1006.0 1006.0 0.0
27/07:00pm 4.4 -1.9 -1.0 68 2.1 W 22 26 12 14 1005.8 1005.8 0.0
27/06:30pm 4.8 -1.1 -0.8 67 2.2 W 20 26 11 14 1005.6 1005.5 0.0
27/06:00pm 5.3 -1.0 -0.7 65 2.4 W 22 28 12 15 1005.2 1005.1 0.0
27/05:30pm 5.6 -0.8 -1.5 60 2.8 WSW 22 28 12 15 1004.7 1004.6 0.0
27/05:00pm 6.5 -1.0 -1.4 57 3.2 WSW 28 39 15 21 1004.1 1004.0 0.0
27/04:30pm 7.6 0.9 -0.8 55 3.4 WSW 24 35 13 19 1003.8 1003.8 0.0
27/04:00pm 8.4 -0.5 -2.0 48 4.2 SW 35 50 19 27 1003.2 1003.1 0.0
27/03:30pm 9.2 -0.5 -2.1 45 4.5 WSW 39 52 21 28 1002.8 1002.6 0.0
27/03:00pm 9.0 -1.7 -2.3 45 4.5 SW 44 57 24 31 1002.3 1002.2 0.0
27/02:30pm 9.5 -2.0 -2.8 42 4.9 SW 48 59 26 32 1001.9 1001.7 0.0
27/02:08pm 9.2 -1.3 -2.4 44 4.6 WSW 43 61 23 33 1001.8 1001.6 0.0
27/02:00pm 8.5 -2.6 -2.7 45 4.4 WSW 46 61 25 33 1001.7 1001.5 0.0
27/01:42pm 8.6 -2.4 -2.1 47 4.3 WSW 46 65 25 35 1001.8 1001.6 0.0
27/01:30pm 8.8 -2.3 -2.5 45 4.5 WSW 46 59 25 32 1001.8 1001.6 0.0
27/01:00pm 9.2 -1.5 -2.7 43 4.8 SW 44 61 24 33 1001.4 1001.3 0.0
27/12:30pm 10.0 -0.4 -2.0 43 4.9 WSW 43 57 23 31 1001.7 1001.5 0.0
27/12:05pm 8.5 -2.5 -2.4 46 4.3 SW 46 65 25 35 1001.6 1001.4 0.0
27/12:00pm 9.3 -1.2 -0.8 49 4.2 SW 44 57 24 31 1001.7 1001.5 0.0
27/11:30am 9.4 -0.2 -1.6 46 4.5 SW 39 48 21 26 1001.9 1001.7 0.0
27/11:00am 8.1 -3.7 -2.5 47 4.2 SW 50 69 27 37 1002.0 1001.9 0.0
27/10:35am 8.7 -1.2 -0.6 52 3.9 WSW 41 59 22 32 1002.2 1002.1 0.0
27/10:30am 8.1 -2.2 -1.1 52 3.7 SW 43 59 23 32 1002.3 1002.2 0.0
27/10:14am 7.7 -2.6 -1.3 53 3.6 SW 43 61 23 33 1002.3 1002.2 0.0
27/10:00am 7.5 -3.4 -0.9 55 3.4 WSW 46 57 25 31 1002.5 1002.4 0.0
27/09:45am 7.5 -2.0 -0.9 55 3.4 SW 39 57 21 31 1002.3 1002.2 0.0
27/09:30am 6.9 -3.4 -1.0 57 3.2 SW 43 56 23 30 1002.3 1002.2 0.0
27/09:18am 6.6 -3.3 -1.1 58 3.1 WSW 41 59 22 32 1002.1 1002.0 0.0
27/09:00am 6.1 -2.1 -0.8 61 2.8 WSW 32 43 17 23 1002.2 1002.1 1.0
27/08:40am 5.3 -2.6 -1.2 63 2.6 WSW 30 48 16 26 1002.2 1002.1 1.0
27/08:30am 4.9 -2.5 -0.5 68 2.2 WSW 28 37 15 20 1002.3 1002.2 1.0
27/08:00am 3.4 -2.9 -1.0 73 1.7 SW 22 28 12 15 1002.2 1002.1 1.0
27/07:30am 2.4 -4.4 -1.7 74 1.5 WSW 24 32 13 17 1002.1 1002.0 1.0
27/07:00am 2.2 -3.8 -1.4 77 1.4 WSW 20 24 11 13 1002.1 1002.0 1.0
27/06:30am 1.6 -3.7 -0.8 84 0.9 WSW 17 20 9 11 1001.9 1001.7 1.0
27/06:00am 1.6 -2.9 -0.6 85 0.9 WSW 13 15 7 8 1001.8 1001.6 1.0
27/05:30am 0.5 -4.1 -1.3 88 0.7 SSW 13 15 7 8 1001.3 1001.2 1.0
27/05:00am 2.6 -2.3 -0.5 80 1.2 WSW 15 19 8 10 1001.3 1001.2 1.0
27/04:30am 2.2 -3.1 -0.9 80 1.2 WSW 17 20 9 11 1001.2 1001.1 1.0
27/04:00am 3.1 -2.7 0.0 80 1.2 WSW 20 26 11 14 1001.0 1000.8 1.0
27/03:30am 3.2 -2.9 0.6 83 1.0 WSW 22 30 12 16 1001.0 1000.8 1.0
27/03:00am 1.9 -3.7 0.0 87 0.8 SW 19 20 10 11 1001.1 1001.0 1.0
27/02:30am 2.1 -3.1 0.3 88 0.7 SW 17 20 9 11 1001.4 1001.3 1.0
27/02:00am 2.9 -2.5 1.0 87 0.8 WSW 19 22 10 12 1001.4 1001.3 1.0
27/01:30am 3.7 -2.3 1.3 84 1.0 WSW 22 26 12 14 1001.3 1001.2 1.0
27/01:00am 3.1 -2.5 1.2 87 0.8 WSW 20 24 11 13 1001.4 1001.3 1.0
27/12:30am 3.0 -2.3 1.8 92 0.5 SW 19 26 10 14 1001.9 1001.7 1.0
27/12:00am 3.1 -2.5 1.0 86 0.9 SW 20 26 11 14 1001.9 1001.7 1.0
 
Date/Time
EST
Temp
°C
App
Temp
°C
Dew
Point
Rel
Hum
%
Delta-T
°C
Wind Press
QNH
hPa
Press
MSL
hPa
Rain
since 9 am
mm
Dir
 
Spd
km/h
Gust
km/h
Spd
kts
Gust
kts
26/11:30pm 3.8 -1.4 2.2 89 0.7 W 19 20 10 11 1002.0 1001.9 1.0
26/11:00pm 3.5 -0.3 2.0 90 0.6 WSW 11 17 6 9 1002.1 1002.0 1.0
26/10:30pm 4.4 -0.3 3.2 92 0.5 WSW 17 22 9 12 1002.3 1002.2 1.0
26/10:00pm 5.0 -1.4 3.2 88 0.8 WSW 26 37 14 20 1002.4 1002.3 0.2
26/09:30pm 5.9 -1.8 2.5 79 1.5 SW 32 43 17 23 1002.2 1002.1 0.0
26/09:00pm 6.4 0.6 2.1 74 1.9 SW 22 28 12 15 1001.8 1001.6 0.0
26/08:30pm 5.6 0.5 0.6 70 2.1 WSW 17 24 9 13 1001.3 1001.2 0.0
26/08:00pm 5.9 1.2 0.7 69 2.2 WSW 15 26 8 14 1001.2 1001.1 0.0
26/07:30pm 5.4 1.8 0.6 71 2.0 WSW 9 15 5 8 1000.9 1000.7 0.0
26/07:00pm 6.4 2.1 0.9 68 2.3 WSW 13 19 7 10 1001.0 1000.8 0.0
26/06:30pm 7.3 2.3 1.4 66 2.5 W 17 22 9 12 1000.9 1000.7 0.0
26/06:00pm 7.3 3.9 1.8 68 2.4 W 9 15 5 8 1000.6 1000.4 0.0
26/05:30pm 7.4 3.9 1.5 66 2.5 W 9 13 5 7 1000.3 1000.2 0.0
26/05:00pm 8.9 4.0 1.8 61 3.1 WSW 17 20 9 11 999.9 999.7 0.0
26/04:30pm 10.2 2.8 2.1 57 3.6 WSW 30 39 16 21 999.8 999.6 0.0
26/04:00pm 11.3 3.0 2.3 54 4.1 WSW 35 48 19 26 999.6 999.4 0.0
26/03:30pm 12.3 3.3 2.5 51 4.5 WSW 39 52 21 28 999.3 999.1 0.0
26/03:00pm 12.7 6.0 3.9 55 4.2 W 28 50 15 27 999.1 998.9 0.0
26/02:30pm 11.7 4.3 4.0 59 3.6 WNW 32 50 17 27 999.0 998.8 0.0
26/02:08pm 10.4 2.9 3.4 62 3.2 WNW 32 50 17 27 999.3 999.1 0.0
26/02:00pm 10.3 2.7 3.1 61 3.3 WNW 32 43 17 23 999.0 998.8 0.0
26/01:30pm 10.9 4.9 3.2 59 3.6 NW 24 37 13 20 999.7 999.5 0.0
26/01:00pm 10.0 5.6 4.6 69 2.6 WNW 17 28 9 15 1000.5 1000.3 0.0
26/12:30pm 9.0 4.9 4.4 73 2.1 NW 15 24 8 13 1000.9 1000.7 0.0
26/12:00pm 9.5 2.7 4.9 73 2.2 NNW 30 41 16 22 1001.2 1001.1 0.0
26/11:30am 9.5 3.7 4.3 70 2.4 NNW 24 33 13 18 1001.4 1001.3 0.0
26/11:00am 9.8 4.9 4.2 68 2.6 NW 19 33 10 18 1002.5 1002.4 0.0
26/10:30am 10.2 6.1 4.4 67 2.7 NW 15 24 8 13 1002.8 1002.6 0.0
26/10:00am 10.4 7.6 5.2 70 2.5 NW 9 22 5 12 1003.1 1003.0 0.0
26/09:30am 8.5 4.7 6.0 84 1.2 ENE 15 17 8 9 1003.6 1003.5 0.0
26/09:00am 8.4 4.1 5.2 80 1.5 NE 17 24 9 13 1004.0 1003.9 1.2
26/08:30am 8.0 4.1 5.3 83 1.3 NE 15 19 8 10 1004.6 1004.5 1.2
26/08:00am 7.6 4.0 5.1 84 1.2 NNE 13 17 7 9 1005.1 1005.0 1.2
26/07:30am 7.3 3.7 4.8 84 1.2 N 13 20 7 11 1005.6 1005.5 1.2
26/07:00am 7.3 3.2 4.6 83 1.3 N 15 22 8 12 1005.8 1005.8 1.2
26/06:30am 7.6 3.5 4.4 80 1.5 N 15 22 8 12 1006.0 1006.0 1.2
26/06:00am 7.3 2.9 4.6 83 1.3 NNW 17 20 9 11 1006.1 1006.1 1.2
26/05:30am 7.2 3.1 4.5 83 1.2 N 15 22 8 12 1006.1 1006.1 1.2
26/05:00am 7.2 3.5 4.3 82 1.3 N 13 24 7 13 1006.9 1006.9 1.2
26/04:30am 7.1 3.8 4.6 84 1.2 N 11 15 6 8 1007.4 1007.3 1.2
26/04:00am 6.8 3.1 4.3 84 1.1 NNE 13 19 7 10 1007.6 1007.6 1.2
26/03:30am 7.6 2.2 4.6 81 1.4 NNW 22 30 12 16 1007.7 1007.7 1.2
26/03:00am 6.5 2.5 5.1 91 0.7 NNE 15 19 8 10 1008.3 1008.3 1.2
26/02:30am 6.1 2.2 5.2 94 0.4 NE 15 19 8 10 1008.2 1008.2 1.2
26/02:00am 6.1 2.8 4.4 89 0.8 NNE 11 15 6 8 1008.8 1008.8 1.2
26/01:30am 7.3 4.3 3.9 79 1.5 NNW 9 13 5 7 1009.5 1009.6 0.4
26/01:00am 7.9 4.6 2.2 67 2.5 NW 9 19 5 10 1009.5 1009.6 0.0
26/12:30am 6.6 3.2 1.9 72 2.0 NNE 9 13 5 7 1009.9 1009.9 0.0
26/12:00am 7.1 3.3 1.8 69 2.3 NNE 11 15 6 8 1010.5 1010.6 0.0

Other Formats:

Comma delimited format used in spreadsheet applications
http://www.bom.gov.au/fwo/IDN60801/IDN60801.94921.axf

JavaScript Object Notation format (JSON) in row-major order
http://www.bom.gov.au/fwo/IDN60801/IDN60801.94921.json